sensor_id;sensor_type;location;lat;lon;timestamp;P1;durP1;ratioP1;P2;durP2;ratioP2
13208;SDS011;6669;42.678;23.332;2022-08-03T00:01:42;3.05;;;1.70;;
13208;SDS011;6669;42.678;23.332;2022-08-03T00:04:10;4.38;;;1.92;;
13208;SDS011;6669;42.678;23.332;2022-08-03T00:06:38;3.03;;;2.05;;
13208;SDS011;6669;42.678;23.332;2022-08-03T00:09:08;3.08;;;2.00;;
13208;SDS011;6669;42.678;23.332;2022-08-03T00:11:36;3.13;;;2.20;;
13208;SDS011;6669;42.678;23.332;2022-08-03T00:14:04;2.15;;;1.65;;
13208;SDS011;6669;42.678;23.332;2022-08-03T00:16:33;2.28;;;2.05;;
13208;SDS011;6669;42.678;23.332;2022-08-03T00:19:02;2.63;;;1.92;;
13208;SDS011;6669;42.678;23.332;2022-08-03T00:21:30;2.00;;;1.80;;
13208;SDS011;6669;42.678;23.332;2022-08-03T00:23:58;2.80;;;1.80;;
13208;SDS011;6669;42.678;23.332;2022-08-03T00:26:28;2.35;;;1.80;;
13208;SDS011;6669;42.678;23.332;2022-08-03T00:28:57;2.03;;;1.92;;
13208;SDS011;6669;42.678;23.332;2022-08-03T00:31:25;2.10;;;1.80;;
13208;SDS011;6669;42.678;23.332;2022-08-03T00:34:13;1.80;;;1.70;;
13208;SDS011;6669;42.678;23.332;2022-08-03T00:36:41;2.92;;;1.60;;
13208;SDS011;6669;42.678;23.332;2022-08-03T00:39:09;2.45;;;1.63;;
13208;SDS011;6669;42.678;23.332;2022-08-03T00:41:38;4.63;;;1.70;;
13208;SDS011;6669;42.678;23.332;2022-08-03T00:44:08;1.65;;;1.55;;
13208;SDS011;6669;42.678;23.332;2022-08-03T00:46:36;1.75;;;1.60;;
13208;SDS011;6669;42.678;23.332;2022-08-03T00:49:04;2.22;;;1.80;;
13208;SDS011;6669;42.678;23.332;2022-08-03T00:51:32;2.88;;;1.63;;
13208;SDS011;6669;42.678;23.332;2022-08-03T00:54:00;1.70;;;1.60;;
13208;SDS011;6669;42.678;23.332;2022-08-03T00:56:28;2.22;;;1.85;;
13208;SDS011;6669;42.678;23.332;2022-08-03T00:58:58;2.80;;;1.70;;
13208;SDS011;6669;42.678;23.332;2022-08-03T01:01:26;1.77;;;1.63;;
13208;SDS011;6669;42.678;23.332;2022-08-03T01:03:58;3.25;;;2.00;;
13208;SDS011;6669;42.678;23.332;2022-08-03T01:06:31;2.58;;;1.90;;
13208;SDS011;6669;42.678;23.332;2022-08-03T01:09:08;3.25;;;1.80;;
13208;SDS011;6669;42.678;23.332;2022-08-03T01:11:43;2.00;;;1.90;;
13208;SDS011;6669;42.678;23.332;2022-08-03T01:14:29;1.92;;;1.83;;
13208;SDS011;6669;42.678;23.332;2022-08-03T01:17:02;2.33;;;2.00;;
13208;SDS011;6669;42.678;23.332;2022-08-03T01:19:40;1.83;;;1.70;;
13208;SDS011;6669;42.678;23.332;2022-08-03T01:22:26;2.50;;;1.92;;
13208;SDS011;6669;42.678;23.332;2022-08-03T01:25:23;1.70;;;1.60;;
13208;SDS011;6669;42.678;23.332;2022-08-03T01:28:09;2.53;;;2.03;;
13208;SDS011;6669;42.678;23.332;2022-08-03T01:30:55;2.33;;;1.90;;
13208;SDS011;6669;42.678;23.332;2022-08-03T01:33:27;3.28;;;1.70;;
13208;SDS011;6669;42.678;23.332;2022-08-03T01:36:02;2.13;;;1.92;;
13208;SDS011;6669;42.678;23.332;2022-08-03T01:38:34;3.25;;;1.90;;
13208;SDS011;6669;42.678;23.332;2022-08-03T01:41:06;2.38;;;1.80;;
13208;SDS011;6669;42.678;23.332;2022-08-03T01:43:39;2.63;;;1.80;;
13208;SDS011;6669;42.678;23.332;2022-08-03T01:46:30;3.67;;;2.05;;
13208;SDS011;6669;42.678;23.332;2022-08-03T01:49:00;2.60;;;2.03;;
13208;SDS011;6669;42.678;23.332;2022-08-03T01:51:35;12.75;;;11.45;;
13208;SDS011;6669;42.678;23.332;2022-08-03T01:54:24;3.72;;;3.35;;
13208;SDS011;6669;42.678;23.332;2022-08-03T01:56:53;1.75;;;1.65;;
13208;SDS011;6669;42.678;23.332;2022-08-03T01:59:24;3.35;;;1.80;;
13208;SDS011;6669;42.678;23.332;2022-08-03T02:01:57;5.35;;;4.30;;
13208;SDS011;6669;42.678;23.332;2022-08-03T02:04:46;2.25;;;1.80;;
13208;SDS011;6669;42.678;23.332;2022-08-03T02:07:17;2.97;;;1.98;;
13208;SDS011;6669;42.678;23.332;2022-08-03T02:09:48;2.85;;;2.38;;
13208;SDS011;6669;42.678;23.332;2022-08-03T02:12:18;3.65;;;2.63;;
13208;SDS011;6669;42.678;23.332;2022-08-03T02:14:47;2.10;;;1.90;;
13208;SDS011;6669;42.678;23.332;2022-08-03T02:17:18;2.17;;;1.98;;
13208;SDS011;6669;42.678;23.332;2022-08-03T02:20:06;2.17;;;1.98;;
13208;SDS011;6669;42.678;23.332;2022-08-03T02:22:38;1.98;;;1.80;;
13208;SDS011;6669;42.678;23.332;2022-08-03T02:25:07;4.13;;;2.10;;
13208;SDS011;6669;42.678;23.332;2022-08-03T02:27:37;2.67;;;2.08;;
13208;SDS011;6669;42.678;23.332;2022-08-03T02:30:09;2.30;;;2.10;;
13208;SDS011;6669;42.678;23.332;2022-08-03T02:32:41;3.05;;;2.50;;
13208;SDS011;6669;42.678;23.332;2022-08-03T02:35:15;3.60;;;2.08;;
13208;SDS011;6669;42.678;23.332;2022-08-03T02:37:48;2.10;;;1.90;;
13208;SDS011;6669;42.678;23.332;2022-08-03T02:40:19;2.55;;;2.15;;
13208;SDS011;6669;42.678;23.332;2022-08-03T02:42:52;2.20;;;2.00;;
13208;SDS011;6669;42.678;23.332;2022-08-03T02:45:25;2.28;;;2.08;;
13208;SDS011;6669;42.678;23.332;2022-08-03T02:47:57;2.42;;;1.80;;
13208;SDS011;6669;42.678;23.332;2022-08-03T02:50:28;3.22;;;2.10;;
13208;SDS011;6669;42.678;23.332;2022-08-03T02:53:00;3.30;;;2.22;;
13208;SDS011;6669;42.678;23.332;2022-08-03T02:55:32;2.28;;;2.08;;
13208;SDS011;6669;42.678;23.332;2022-08-03T02:58:11;2.10;;;1.90;;
13208;SDS011;6669;42.678;23.332;2022-08-03T03:00:40;3.20;;;2.03;;
13208;SDS011;6669;42.678;23.332;2022-08-03T03:03:12;3.92;;;2.00;;
13208;SDS011;6669;42.678;23.332;2022-08-03T03:05:45;3.97;;;2.00;;
13208;SDS011;6669;42.678;23.332;2022-08-03T03:08:22;4.22;;;2.13;;
13208;SDS011;6669;42.678;23.332;2022-08-03T03:10:54;2.30;;;2.10;;
13208;SDS011;6669;42.678;23.332;2022-08-03T03:13:24;3.65;;;2.00;;
13208;SDS011;6669;42.678;23.332;2022-08-03T03:15:55;3.22;;;2.10;;
13208;SDS011;6669;42.678;23.332;2022-08-03T03:18:28;2.13;;;1.92;;
13208;SDS011;6669;42.678;23.332;2022-08-03T03:20:59;2.70;;;1.90;;
13208;SDS011;6669;42.678;23.332;2022-08-03T03:23:29;3.78;;;2.22;;
13208;SDS011;6669;42.678;23.332;2022-08-03T03:25:59;5.55;;;3.08;;
13208;SDS011;6669;42.678;23.332;2022-08-03T03:28:27;3.63;;;2.55;;
13208;SDS011;6669;42.678;23.332;2022-08-03T03:30:57;2.97;;;2.30;;
13208;SDS011;6669;42.678;23.332;2022-08-03T03:33:25;3.75;;;2.45;;
13208;SDS011;6669;42.678;23.332;2022-08-03T03:35:55;2.83;;;2.55;;
13208;SDS011;6669;42.678;23.332;2022-08-03T03:38:25;2.88;;;2.58;;
13208;SDS011;6669;42.678;23.332;2022-08-03T03:40:53;4.13;;;2.60;;
13208;SDS011;6669;42.678;23.332;2022-08-03T03:43:22;4.18;;;3.10;;
13208;SDS011;6669;42.678;23.332;2022-08-03T03:45:51;4.72;;;3.00;;
13208;SDS011;6669;42.678;23.332;2022-08-03T03:48:20;9.77;;;4.65;;
13208;SDS011;6669;42.678;23.332;2022-08-03T03:50:49;3.65;;;3.08;;
13208;SDS011;6669;42.678;23.332;2022-08-03T03:53:17;3.85;;;2.72;;
13208;SDS011;6669;42.678;23.332;2022-08-03T03:55:45;4.22;;;3.15;;
13208;SDS011;6669;42.678;23.332;2022-08-03T03:58:27;8.50;;;3.03;;
13208;SDS011;6669;42.678;23.332;2022-08-03T04:00:55;4.60;;;2.60;;
13208;SDS011;6669;42.678;23.332;2022-08-03T04:03:23;3.03;;;2.65;;
13208;SDS011;6669;42.678;23.332;2022-08-03T04:05:53;3.80;;;2.60;;
13208;SDS011;6669;42.678;23.332;2022-08-03T04:08:38;4.82;;;2.90;;
13208;SDS011;6669;42.678;23.332;2022-08-03T04:11:25;3.33;;;2.60;;
13208;SDS011;6669;42.678;23.332;2022-08-03T04:13:57;3.60;;;2.80;;
13208;SDS011;6669;42.678;23.332;2022-08-03T04:16:29;4.35;;;2.70;;
13208;SDS011;6669;42.678;23.332;2022-08-03T04:19:01;3.70;;;2.70;;
13208;SDS011;6669;42.678;23.332;2022-08-03T04:21:33;3.28;;;2.92;;
13208;SDS011;6669;42.678;23.332;2022-08-03T04:24:04;3.80;;;2.85;;
13208;SDS011;6669;42.678;23.332;2022-08-03T04:26:35;3.55;;;2.85;;
13208;SDS011;6669;42.678;23.332;2022-08-03T04:29:05;4.82;;;4.40;;
13208;SDS011;6669;42.678;23.332;2022-08-03T04:31:35;2.95;;;2.70;;
13208;SDS011;6669;42.678;23.332;2022-08-03T04:34:06;4.45;;;3.35;;
13208;SDS011;6669;42.678;23.332;2022-08-03T04:36:37;6.32;;;3.00;;
13208;SDS011;6669;42.678;23.332;2022-08-03T04:39:12;3.90;;;2.65;;
13208;SDS011;6669;42.678;23.332;2022-08-03T04:41:42;5.45;;;3.25;;
13208;SDS011;6669;42.678;23.332;2022-08-03T04:44:34;3.45;;;2.92;;
13208;SDS011;6669;42.678;23.332;2022-08-03T04:47:06;3.42;;;3.08;;
13208;SDS011;6669;42.678;23.332;2022-08-03T04:49:35;5.28;;;2.75;;
13208;SDS011;6669;42.678;23.332;2022-08-03T04:52:07;4.85;;;3.03;;
13208;SDS011;6669;42.678;23.332;2022-08-03T04:54:39;3.13;;;2.80;;
13208;SDS011;6669;42.678;23.332;2022-08-03T04:57:15;5.45;;;3.40;;
13208;SDS011;6669;42.678;23.332;2022-08-03T04:59:48;3.90;;;3.05;;
13208;SDS011;6669;42.678;23.332;2022-08-03T05:02:27;8.52;;;3.00;;
13208;SDS011;6669;42.678;23.332;2022-08-03T05:04:56;5.32;;;2.97;;
13208;SDS011;6669;42.678;23.332;2022-08-03T05:07:26;3.63;;;2.88;;
13208;SDS011;6669;42.678;23.332;2022-08-03T05:10:02;3.70;;;2.45;;
13208;SDS011;6669;42.678;23.332;2022-08-03T05:12:41;3.20;;;2.85;;
13208;SDS011;6669;42.678;23.332;2022-08-03T05:15:10;4.03;;;3.00;;
13208;SDS011;6669;42.678;23.332;2022-08-03T05:17:38;5.82;;;3.03;;
13208;SDS011;6669;42.678;23.332;2022-08-03T05:20:07;5.55;;;3.70;;
13208;SDS011;6669;42.678;23.332;2022-08-03T05:22:37;4.70;;;3.17;;
13208;SDS011;6669;42.678;23.332;2022-08-03T05:25:05;4.22;;;3.55;;
13208;SDS011;6669;42.678;23.332;2022-08-03T05:27:34;4.30;;;3.65;;
13208;SDS011;6669;42.678;23.332;2022-08-03T05:30:02;5.47;;;3.60;;
13208;SDS011;6669;42.678;23.332;2022-08-03T05:32:50;8.88;;;4.15;;
13208;SDS011;6669;42.678;23.332;2022-08-03T05:35:19;6.78;;;4.07;;
13208;SDS011;6669;42.678;23.332;2022-08-03T05:38:12;3.85;;;3.45;;
13208;SDS011;6669;42.678;23.332;2022-08-03T05:40:49;5.07;;;3.60;;
13208;SDS011;6669;42.678;23.332;2022-08-03T05:43:23;5.15;;;3.72;;
13208;SDS011;6669;42.678;23.332;2022-08-03T05:45:51;5.10;;;3.60;;
13208;SDS011;6669;42.678;23.332;2022-08-03T05:48:38;5.47;;;3.55;;
13208;SDS011;6669;42.678;23.332;2022-08-03T05:51:06;3.95;;;3.42;;
13208;SDS011;6669;42.678;23.332;2022-08-03T05:53:39;5.20;;;3.35;;
13208;SDS011;6669;42.678;23.332;2022-08-03T05:56:07;4.82;;;3.33;;
13208;SDS011;6669;42.678;23.332;2022-08-03T05:58:40;5.82;;;3.35;;
13208;SDS011;6669;42.678;23.332;2022-08-03T06:01:09;5.72;;;3.80;;
13208;SDS011;6669;42.678;23.332;2022-08-03T06:03:37;8.85;;;4.47;;
13208;SDS011;6669;42.678;23.332;2022-08-03T06:06:06;5.32;;;4.25;;
13208;SDS011;6669;42.678;23.332;2022-08-03T06:08:34;4.40;;;4.00;;
13208;SDS011;6669;42.678;23.332;2022-08-03T06:11:03;6.90;;;4.07;;
13208;SDS011;6669;42.678;23.332;2022-08-03T06:13:31;5.78;;;3.53;;
13208;SDS011;6669;42.678;23.332;2022-08-03T06:16:00;5.20;;;3.15;;
13208;SDS011;6669;42.678;23.332;2022-08-03T06:18:28;4.88;;;3.90;;
13208;SDS011;6669;42.678;23.332;2022-08-03T06:20:56;6.63;;;3.38;;
13208;SDS011;6669;42.678;23.332;2022-08-03T06:23:40;3.25;;;2.95;;
13208;SDS011;6669;42.678;23.332;2022-08-03T06:26:22;3.63;;;3.00;;
13208;SDS011;6669;42.678;23.332;2022-08-03T06:28:51;5.20;;;3.33;;
13208;SDS011;6669;42.678;23.332;2022-08-03T06:31:20;10.07;;;6.10;;
13208;SDS011;6669;42.678;23.332;2022-08-03T06:33:57;4.20;;;3.13;;
13208;SDS011;6669;42.678;23.332;2022-08-03T06:36:45;3.40;;;3.10;;
13208;SDS011;6669;42.678;23.332;2022-08-03T06:39:17;6.65;;;2.90;;
13208;SDS011;6669;42.678;23.332;2022-08-03T06:41:50;4.35;;;2.85;;
13208;SDS011;6669;42.678;23.332;2022-08-03T06:44:19;4.90;;;3.33;;
13208;SDS011;6669;42.678;23.332;2022-08-03T06:46:46;6.20;;;2.85;;
13208;SDS011;6669;42.678;23.332;2022-08-03T06:49:15;5.15;;;2.92;;
13208;SDS011;6669;42.678;23.332;2022-08-03T06:51:43;4.00;;;2.92;;
13208;SDS011;6669;42.678;23.332;2022-08-03T06:54:31;3.63;;;3.30;;
13208;SDS011;6669;42.678;23.332;2022-08-03T06:57:00;5.95;;;3.08;;
13208;SDS011;6669;42.678;23.332;2022-08-03T06:59:28;7.43;;;3.70;;
13208;SDS011;6669;42.678;23.332;2022-08-03T07:02:16;7.95;;;6.90;;
13208;SDS011;6669;42.678;23.332;2022-08-03T07:04:46;5.40;;;3.63;;
13208;SDS011;6669;42.678;23.332;2022-08-03T07:07:14;6.60;;;3.65;;
13208;SDS011;6669;42.678;23.332;2022-08-03T07:09:42;6.65;;;3.55;;
13208;SDS011;6669;42.678;23.332;2022-08-03T07:12:24;5.57;;;3.15;;
13208;SDS011;6669;42.678;23.332;2022-08-03T07:14:53;4.75;;;3.70;;
13208;SDS011;6669;42.678;23.332;2022-08-03T07:17:27;6.82;;;3.70;;
13208;SDS011;6669;42.678;23.332;2022-08-03T07:19:55;7.10;;;3.40;;
13208;SDS011;6669;42.678;23.332;2022-08-03T07:22:23;4.43;;;3.70;;
13208;SDS011;6669;42.678;23.332;2022-08-03T07:24:52;5.32;;;3.72;;
13208;SDS011;6669;42.678;23.332;2022-08-03T07:27:20;7.40;;;3.72;;
13208;SDS011;6669;42.678;23.332;2022-08-03T07:29:49;4.53;;;3.00;;
13208;SDS011;6669;42.678;23.332;2022-08-03T07:32:17;5.03;;;3.38;;
13208;SDS011;6669;42.678;23.332;2022-08-03T07:34:45;6.03;;;3.60;;
13208;SDS011;6669;42.678;23.332;2022-08-03T07:37:13;5.45;;;3.72;;
13208;SDS011;6669;42.678;23.332;2022-08-03T07:39:41;5.00;;;3.70;;
13208;SDS011;6669;42.678;23.332;2022-08-03T07:42:10;6.03;;;3.83;;
13208;SDS011;6669;42.678;23.332;2022-08-03T07:44:38;5.80;;;4.00;;
13208;SDS011;6669;42.678;23.332;2022-08-03T07:47:07;6.68;;;3.75;;
13208;SDS011;6669;42.678;23.332;2022-08-03T07:49:47;5.32;;;3.80;;
13208;SDS011;6669;42.678;23.332;2022-08-03T07:52:15;6.18;;;4.07;;
13208;SDS011;6669;42.678;23.332;2022-08-03T07:55:01;6.95;;;3.50;;
13208;SDS011;6669;42.678;23.332;2022-08-03T07:57:30;5.10;;;4.07;;
13208;SDS011;6669;42.678;23.332;2022-08-03T07:59:58;8.30;;;3.75;;
13208;SDS011;6669;42.678;23.332;2022-08-03T08:02:29;8.55;;;4.20;;
13208;SDS011;6669;42.678;23.332;2022-08-03T08:04:57;5.80;;;4.63;;
13208;SDS011;6669;42.678;23.332;2022-08-03T08:07:31;4.25;;;3.17;;
13208;SDS011;6669;42.678;23.332;2022-08-03T08:09:59;7.47;;;3.10;;
13208;SDS011;6669;42.678;23.332;2022-08-03T08:12:27;3.15;;;2.85;;
13208;SDS011;6669;42.678;23.332;2022-08-03T08:14:56;7.63;;;3.30;;
13208;SDS011;6669;42.678;23.332;2022-08-03T08:17:24;6.10;;;3.15;;
13208;SDS011;6669;42.678;23.332;2022-08-03T08:19:53;3.22;;;2.72;;
13208;SDS011;6669;42.678;23.332;2022-08-03T08:22:23;6.20;;;2.70;;
13208;SDS011;6669;42.678;23.332;2022-08-03T08:24:56;5.18;;;2.90;;
13208;SDS011;6669;42.678;23.332;2022-08-03T08:27:26;3.78;;;2.47;;
13208;SDS011;6669;42.678;23.332;2022-08-03T08:30:16;3.15;;;2.72;;
13208;SDS011;6669;42.678;23.332;2022-08-03T08:32:45;3.28;;;2.50;;
13208;SDS011;6669;42.678;23.332;2022-08-03T08:35:15;5.95;;;2.60;;
13208;SDS011;6669;42.678;23.332;2022-08-03T08:37:44;2.72;;;2.13;;
13208;SDS011;6669;42.678;23.332;2022-08-03T08:40:16;3.60;;;2.00;;
13208;SDS011;6669;42.678;23.332;2022-08-03T08:42:47;3.85;;;2.13;;
13208;SDS011;6669;42.678;23.332;2022-08-03T08:45:24;3.17;;;2.13;;
13208;SDS011;6669;42.678;23.332;2022-08-03T08:47:54;2.90;;;2.50;;
13208;SDS011;6669;42.678;23.332;2022-08-03T08:50:30;5.57;;;2.40;;
13208;SDS011;6669;42.678;23.332;2022-08-03T08:52:59;6.60;;;2.33;;
13208;SDS011;6669;42.678;23.332;2022-08-03T08:55:29;2.38;;;1.90;;
13208;SDS011;6669;42.678;23.332;2022-08-03T08:58:18;2.92;;;1.70;;
13208;SDS011;6669;42.678;23.332;2022-08-03T09:00:48;2.67;;;1.90;;
13208;SDS011;6669;42.678;23.332;2022-08-03T09:03:17;3.05;;;2.00;;
13208;SDS011;6669;42.678;23.332;2022-08-03T09:05:57;5.32;;;2.22;;
13208;SDS011;6669;42.678;23.332;2022-08-03T09:08:26;2.92;;;1.90;;
13208;SDS011;6669;42.678;23.332;2022-08-03T09:10:55;3.92;;;2.17;;
13208;SDS011;6669;42.678;23.332;2022-08-03T09:13:23;4.25;;;2.35;;
13208;SDS011;6669;42.678;23.332;2022-08-03T09:18:38;4.75;;;1.75;;
13208;SDS011;6669;42.678;23.332;2022-08-03T09:21:16;2.53;;;2.20;;
13208;SDS011;6669;42.678;23.332;2022-08-03T09:23:58;2.47;;;1.95;;
13208;SDS011;6669;42.678;23.332;2022-08-03T09:26:30;2.38;;;1.77;;
13208;SDS011;6669;42.678;23.332;2022-08-03T09:28:59;1.90;;;1.80;;
13208;SDS011;6669;42.678;23.332;2022-08-03T09:31:36;3.65;;;1.92;;
13208;SDS011;6669;42.678;23.332;2022-08-03T09:34:09;5.13;;;2.20;;
13208;SDS011;6669;42.678;23.332;2022-08-03T09:36:40;2.55;;;2.05;;
13208;SDS011;6669;42.678;23.332;2022-08-03T09:39:12;4.05;;;1.92;;
13208;SDS011;6669;42.678;23.332;2022-08-03T09:41:43;2.92;;;2.00;;
13208;SDS011;6669;42.678;23.332;2022-08-03T09:44:12;1.70;;;1.60;;
13208;SDS011;6669;42.678;23.332;2022-08-03T09:46:52;2.55;;;1.85;;
13208;SDS011;6669;42.678;23.332;2022-08-03T09:49:22;2.80;;;2.47;;
13208;SDS011;6669;42.678;23.332;2022-08-03T09:51:52;1.85;;;1.63;;
13208;SDS011;6669;42.678;23.332;2022-08-03T09:54:40;3.28;;;1.80;;
13208;SDS011;6669;42.678;23.332;2022-08-03T09:57:18;2.97;;;2.30;;
13208;SDS011;6669;42.678;23.332;2022-08-03T09:59:48;1.85;;;1.75;;
13208;SDS011;6669;42.678;23.332;2022-08-03T10:02:30;3.03;;;1.90;;
13208;SDS011;6669;42.678;23.332;2022-08-03T10:04:58;2.97;;;1.35;;
13208;SDS011;6669;42.678;23.332;2022-08-03T10:07:27;1.67;;;1.58;;
13208;SDS011;6669;42.678;23.332;2022-08-03T10:09:55;2.40;;;1.70;;
13208;SDS011;6669;42.678;23.332;2022-08-03T10:12:44;2.40;;;1.60;;
13208;SDS011;6669;42.678;23.332;2022-08-03T10:15:14;1.90;;;1.70;;
13208;SDS011;6669;42.678;23.332;2022-08-03T10:18:02;2.00;;;1.80;;
13208;SDS011;6669;42.678;23.332;2022-08-03T10:20:31;1.83;;;1.60;;
13208;SDS011;6669;42.678;23.332;2022-08-03T10:23:06;2.55;;;1.75;;
13208;SDS011;6669;42.678;23.332;2022-08-03T10:25:35;4.95;;;1.80;;
13208;SDS011;6669;42.678;23.332;2022-08-03T10:28:06;1.60;;;1.50;;
13208;SDS011;6669;42.678;23.332;2022-08-03T10:30:39;2.25;;;1.83;;
13208;SDS011;6669;42.678;23.332;2022-08-03T10:33:12;2.50;;;1.90;;
13208;SDS011;6669;42.678;23.332;2022-08-03T10:36:04;3.95;;;1.77;;
13208;SDS011;6669;42.678;23.332;2022-08-03T10:38:37;2.15;;;1.50;;
13208;SDS011;6669;42.678;23.332;2022-08-03T10:41:11;1.95;;;1.70;;
13208;SDS011;6669;42.678;23.332;2022-08-03T10:43:41;1.80;;;1.70;;
13208;SDS011;6669;42.678;23.332;2022-08-03T10:46:15;1.40;;;1.30;;
13208;SDS011;6669;42.678;23.332;2022-08-03T10:48:45;2.22;;;1.88;;
13208;SDS011;6669;42.678;23.332;2022-08-03T10:51:15;2.92;;;1.50;;
13208;SDS011;6669;42.678;23.332;2022-08-03T10:53:45;1.50;;;1.40;;
13208;SDS011;6669;42.678;23.332;2022-08-03T10:56:39;1.90;;;1.60;;
13208;SDS011;6669;42.678;23.332;2022-08-03T10:59:58;2.05;;;1.48;;
13208;SDS011;6669;42.678;23.332;2022-08-03T11:05:39;2.97;;;1.60;;
13208;SDS011;6669;42.678;23.332;2022-08-03T11:08:24;2.55;;;1.40;;
13208;SDS011;6669;42.678;23.332;2022-08-03T11:10:59;1.58;;;1.48;;
13208;SDS011;6669;42.678;23.332;2022-08-03T11:13:29;1.10;;;1.10;;
13208;SDS011;6669;42.678;23.332;2022-08-03T11:16:00;1.40;;;1.30;;
13208;SDS011;6669;42.678;23.332;2022-08-03T11:18:54;1.67;;;1.25;;
13208;SDS011;6669;42.678;23.332;2022-08-03T11:27:36;1.33;;;1.23;;
13208;SDS011;6669;42.678;23.332;2022-08-03T11:30:05;1.60;;;1.40;;
13208;SDS011;6669;42.678;23.332;2022-08-03T11:32:50;1.55;;;1.38;;
13208;SDS011;6669;42.678;23.332;2022-08-03T11:35:20;2.22;;;1.30;;
13208;SDS011;6669;42.678;23.332;2022-08-03T11:38:09;2.40;;;1.30;;
13208;SDS011;6669;42.678;23.332;2022-08-03T11:40:39;1.65;;;1.40;;
13208;SDS011;6669;42.678;23.332;2022-08-03T11:43:42;1.40;;;1.30;;
13208;SDS011;6669;42.678;23.332;2022-08-03T11:46:14;1.20;;;1.10;;
13208;SDS011;6669;42.678;23.332;2022-08-03T11:48:54;1.45;;;1.10;;
13208;SDS011;6669;42.678;23.332;2022-08-03T11:51:35;1.42;;;1.30;;
13208;SDS011;6669;42.678;23.332;2022-08-03T11:54:05;1.55;;;1.20;;
13208;SDS011;6669;42.678;23.332;2022-08-03T11:56:42;1.70;;;1.33;;
13208;SDS011;6669;42.678;23.332;2022-08-03T11:59:13;2.30;;;1.65;;
13208;SDS011;6669;42.678;23.332;2022-08-03T12:01:47;1.50;;;1.40;;
13208;SDS011;6669;42.678;23.332;2022-08-03T12:04:15;2.20;;;2.10;;
13208;SDS011;6669;42.678;23.332;2022-08-03T12:06:56;1.70;;;1.60;;
13208;SDS011;6669;42.678;23.332;2022-08-03T12:09:25;1.15;;;1.05;;
13208;SDS011;6669;42.678;23.332;2022-08-03T12:11:53;2.15;;;1.63;;
13208;SDS011;6669;42.678;23.332;2022-08-03T12:14:27;3.08;;;1.63;;
13208;SDS011;6669;42.678;23.332;2022-08-03T12:17:15;1.50;;;1.30;;
13208;SDS011;6669;42.678;23.332;2022-08-03T12:19:44;1.65;;;1.42;;
13208;SDS011;6669;42.678;23.332;2022-08-03T12:22:12;1.42;;;1.33;;
13208;SDS011;6669;42.678;23.332;2022-08-03T12:24:44;2.35;;;1.55;;
13208;SDS011;6669;42.678;23.332;2022-08-03T12:27:21;1.80;;;1.50;;
13208;SDS011;6669;42.678;23.332;2022-08-03T12:29:52;1.98;;;1.30;;
13208;SDS011;6669;42.678;23.332;2022-08-03T12:32:24;1.50;;;1.40;;
13208;SDS011;6669;42.678;23.332;2022-08-03T12:34:53;1.58;;;1.30;;
13208;SDS011;6669;42.678;23.332;2022-08-03T12:37:25;1.45;;;1.35;;
13208;SDS011;6669;42.678;23.332;2022-08-03T12:39:54;1.63;;;1.52;;
13208;SDS011;6669;42.678;23.332;2022-08-03T12:42:32;1.65;;;1.55;;
13208;SDS011;6669;42.678;23.332;2022-08-03T12:47:53;2.20;;;1.70;;
13208;SDS011;6669;42.678;23.332;2022-08-03T12:50:23;2.78;;;1.40;;
13208;SDS011;6669;42.678;23.332;2022-08-03T12:52:52;2.63;;;1.50;;
13208;SDS011;6669;42.678;23.332;2022-08-03T12:55:21;1.30;;;1.20;;
13208;SDS011;6669;42.678;23.332;2022-08-03T12:57:50;1.35;;;1.20;;
13208;SDS011;6669;42.678;23.332;2022-08-03T13:07:06;1.52;;;1.40;;
13208;SDS011;6669;42.678;23.332;2022-08-03T13:09:40;1.45;;;1.20;;
13208;SDS011;6669;42.678;23.332;2022-08-03T13:12:10;1.63;;;1.52;;
13208;SDS011;6669;42.678;23.332;2022-08-03T13:14:39;1.88;;;1.35;;
13208;SDS011;6669;42.678;23.332;2022-08-03T13:17:08;1.52;;;1.40;;
13208;SDS011;6669;42.678;23.332;2022-08-03T13:19:37;2.13;;;1.30;;
13208;SDS011;6669;42.678;23.332;2022-08-03T13:22:11;1.48;;;1.38;;
13208;SDS011;6669;42.678;23.332;2022-08-03T13:24:40;1.42;;;1.30;;
13208;SDS011;6669;42.678;23.332;2022-08-03T13:27:09;1.40;;;1.30;;
13208;SDS011;6669;42.678;23.332;2022-08-03T13:29:58;1.42;;;1.33;;
13208;SDS011;6669;42.678;23.332;2022-08-03T13:32:26;1.55;;;1.40;;
13208;SDS011;6669;42.678;23.332;2022-08-03T13:34:54;1.40;;;1.30;;
13208;SDS011;6669;42.678;23.332;2022-08-03T13:37:24;1.98;;;1.20;;
13208;SDS011;6669;42.678;23.332;2022-08-03T13:39:53;2.10;;;1.27;;
13208;SDS011;6669;42.678;23.332;2022-08-03T13:42:28;1.73;;;1.38;;
13208;SDS011;6669;42.678;23.332;2022-08-03T13:44:57;1.35;;;1.25;;
13208;SDS011;6669;42.678;23.332;2022-08-03T13:47:26;1.40;;;1.30;;
13208;SDS011;6669;42.678;23.332;2022-08-03T13:49:54;1.13;;;1.13;;
13208;SDS011;6669;42.678;23.332;2022-08-03T13:52:29;3.05;;;1.60;;
13208;SDS011;6669;42.678;23.332;2022-08-03T13:54:58;1.70;;;1.60;;
13208;SDS011;6669;42.678;23.332;2022-08-03T13:57:29;2.33;;;1.65;;
13208;SDS011;6669;42.678;23.332;2022-08-03T14:00:17;1.80;;;1.52;;
13208;SDS011;6669;42.678;23.332;2022-08-03T14:02:54;3.85;;;1.83;;
13208;SDS011;6669;42.678;23.332;2022-08-03T14:05:32;2.58;;;2.00;;
13208;SDS011;6669;42.678;23.332;2022-08-03T14:08:02;2.20;;;1.60;;
13208;SDS011;6669;42.678;23.332;2022-08-03T14:10:32;4.15;;;1.77;;
13208;SDS011;6669;42.678;23.332;2022-08-03T14:13:02;2.85;;;1.90;;
13208;SDS011;6669;42.678;23.332;2022-08-03T14:15:31;2.42;;;2.17;;
13208;SDS011;6669;42.678;23.332;2022-08-03T14:18:04;2.28;;;2.00;;
13208;SDS011;6669;42.678;23.332;2022-08-03T14:20:41;2.13;;;1.95;;
13208;SDS011;6669;42.678;23.332;2022-08-03T14:23:20;3.47;;;2.33;;
13208;SDS011;6669;42.678;23.332;2022-08-03T14:25:49;6.00;;;2.13;;
13208;SDS011;6669;42.678;23.332;2022-08-03T14:28:18;2.03;;;1.80;;
13208;SDS011;6669;42.678;23.332;2022-08-03T14:30:49;4.63;;;2.17;;
13208;SDS011;6669;42.678;23.332;2022-08-03T14:33:18;2.40;;;2.17;;
13208;SDS011;6669;42.678;23.332;2022-08-03T14:35:46;2.42;;;2.05;;
13208;SDS011;6669;42.678;23.332;2022-08-03T14:38:15;5.20;;;2.20;;
13208;SDS011;6669;42.678;23.332;2022-08-03T14:40:44;2.10;;;1.90;;
13208;SDS011;6669;42.678;23.332;2022-08-03T14:43:13;2.30;;;2.10;;
13208;SDS011;6669;42.678;23.332;2022-08-03T14:45:43;2.30;;;2.10;;
13208;SDS011;6669;42.678;23.332;2022-08-03T14:48:11;2.28;;;2.10;;
13208;SDS011;6669;42.678;23.332;2022-08-03T14:50:59;2.38;;;2.17;;
13208;SDS011;6669;42.678;23.332;2022-08-03T14:53:28;4.53;;;2.28;;
13208;SDS011;6669;42.678;23.332;2022-08-03T14:55:57;3.80;;;2.20;;
13208;SDS011;6669;42.678;23.332;2022-08-03T14:58:25;3.92;;;2.38;;
13208;SDS011;6669;42.678;23.332;2022-08-03T15:00:54;4.53;;;2.42;;
13208;SDS011;6669;42.678;23.332;2022-08-03T15:03:22;3.33;;;2.40;;
13208;SDS011;6669;42.678;23.332;2022-08-03T15:05:51;6.45;;;2.88;;
13208;SDS011;6669;42.678;23.332;2022-08-03T15:08:22;2.30;;;2.10;;
13208;SDS011;6669;42.678;23.332;2022-08-03T15:10:51;4.57;;;1.95;;
13208;SDS011;6669;42.678;23.332;2022-08-03T15:13:21;2.47;;;2.17;;
13208;SDS011;6669;42.678;23.332;2022-08-03T15:15:50;6.07;;;2.88;;
13208;SDS011;6669;42.678;23.332;2022-08-03T15:18:19;3.95;;;2.17;;
13208;SDS011;6669;42.678;23.332;2022-08-03T15:20:47;1.90;;;1.77;;
13208;SDS011;6669;42.678;23.332;2022-08-03T15:23:16;2.40;;;2.20;;
13208;SDS011;6669;42.678;23.332;2022-08-03T15:25:45;3.13;;;2.30;;
13208;SDS011;6669;42.678;23.332;2022-08-03T15:28:35;2.20;;;2.00;;
13208;SDS011;6669;42.678;23.332;2022-08-03T15:31:03;2.17;;;1.95;;
13208;SDS011;6669;42.678;23.332;2022-08-03T15:33:32;3.53;;;2.08;;
13208;SDS011;6669;42.678;23.332;2022-08-03T15:36:01;3.63;;;1.90;;
13208;SDS011;6669;42.678;23.332;2022-08-03T15:38:29;2.35;;;2.10;;
13208;SDS011;6669;42.678;23.332;2022-08-03T15:40:57;4.38;;;2.03;;
13208;SDS011;6669;42.678;23.332;2022-08-03T15:43:25;3.90;;;2.30;;